createdAt,value
2022-12-31T00:00:15.295Z,1.35
2022-12-31T00:02:42.405Z,1.52
2022-12-31T00:05:09.806Z,1.50
2022-12-31T00:10:04.632Z,1.40
2022-12-31T00:12:31.682Z,1.58
2022-12-31T00:14:58.674Z,1.13
2022-12-31T00:17:25.654Z,1.65
2022-12-31T00:19:52.564Z,2.08
2022-12-31T00:22:19.580Z,0.95
2022-12-31T00:24:46.613Z,1.25
2022-12-31T00:27:13.743Z,1.15
2022-12-31T00:29:40.681Z,1.48
2022-12-31T00:32:07.620Z,0.88
2022-12-31T00:34:35.601Z,1.13
2022-12-31T00:37:02.600Z,0.98
2022-12-31T00:39:29.551Z,0.95
2022-12-31T00:41:56.698Z,1.20
2022-12-31T00:44:23.689Z,1.30
2022-12-31T00:46:50.638Z,1.08
2022-12-31T00:49:17.645Z,0.90
2022-12-31T00:51:46.687Z,1.20
2022-12-31T00:54:13.828Z,0.90
2022-12-31T00:56:41.052Z,1.10
2022-12-31T00:59:08.045Z,0.95
2022-12-31T01:01:37.971Z,1.20
2022-12-31T01:04:07.753Z,0.90
2022-12-31T01:06:34.987Z,0.90
2022-12-31T01:09:02.260Z,0.70
2022-12-31T01:11:29.569Z,0.90
2022-12-31T01:13:58.277Z,0.90
2022-12-31T01:16:32.217Z,0.85
2022-12-31T01:19:02.010Z,0.60
2022-12-31T01:21:29.579Z,0.98
2022-12-31T01:23:57.654Z,0.80
2022-12-31T01:26:24.668Z,0.80
2022-12-31T01:28:51.696Z,1.50
2022-12-31T01:31:23.990Z,0.80
2022-12-31T01:33:52.095Z,0.95
2022-12-31T01:36:26.530Z,0.75
2022-12-31T01:38:59.095Z,0.73
2022-12-31T01:41:29.338Z,1.83
2022-12-31T01:44:11.634Z,0.68
2022-12-31T01:46:47.153Z,0.65
2022-12-31T01:49:36.774Z,0.75
2022-12-31T01:52:06.466Z,0.70
2022-12-31T01:54:38.907Z,0.60
2022-12-31T01:57:07.008Z,0.70
2022-12-31T01:59:34.565Z,0.88
2022-12-31T02:02:02.104Z,0.70
2022-12-31T02:04:29.633Z,2.30
2022-12-31T02:07:05.408Z,0.65
2022-12-31T02:09:33.784Z,1.13
2022-12-31T02:12:00.700Z,0.70
2022-12-31T02:14:31.985Z,1.30
2022-12-31T02:17:20.380Z,1.27
2022-12-31T02:20:24.660Z,0.60
2022-12-31T02:23:14.106Z,0.90
2022-12-31T02:26:35.116Z,0.70
2022-12-31T02:29:39.315Z,0.70
2022-12-31T02:32:17.650Z,1.17
2022-12-31T02:34:51.723Z,0.70
2022-12-31T02:37:21.928Z,0.60
2022-12-31T02:39:49.623Z,0.65
2022-12-31T02:42:16.573Z,0.80
2022-12-31T02:44:43.666Z,1.13
2022-12-31T02:47:25.789Z,0.73
2022-12-31T02:50:08.436Z,0.77
2022-12-31T02:52:41.066Z,1.50
2022-12-31T02:55:25.944Z,0.82
2022-12-31T02:57:55.449Z,2.78
2022-12-31T03:00:41.899Z,1.52
2022-12-31T03:03:09.158Z,2.40
2022-12-31T03:05:41.139Z,0.98
2022-12-31T03:08:08.645Z,0.88
2022-12-31T03:10:35.950Z,1.70
2022-12-31T03:13:03.375Z,0.98
2022-12-31T03:15:32.871Z,1.35
2022-12-31T03:18:10.386Z,0.93
2022-12-31T03:21:01.290Z,1.60
2022-12-31T03:23:33.047Z,2.05
2022-12-31T03:26:00.879Z,0.75
2022-12-31T03:28:30.061Z,1.60
2022-12-31T03:31:00.160Z,2.08
2022-12-31T03:33:31.353Z,3.28
2022-12-31T03:35:58.364Z,0.77
2022-12-31T03:38:25.426Z,2.22
2022-12-31T03:40:53.240Z,1.55
2022-12-31T03:43:21.407Z,2.53
2022-12-31T03:45:51.355Z,1.77
2022-12-31T03:48:19.156Z,2.92
2022-12-31T03:50:46.103Z,2.40
2022-12-31T03:53:13.166Z,0.70
2022-12-31T03:55:40.225Z,1.75
2022-12-31T03:58:07.332Z,1.13
2022-12-31T04:00:34.423Z,1.95
2022-12-31T04:03:01.440Z,2.15
2022-12-31T04:05:28.439Z,1.63
2022-12-31T04:07:56.247Z,1.52
2022-12-31T04:10:23.284Z,0.93
2022-12-31T04:12:50.308Z,0.88
2022-12-31T04:15:19.879Z,1.00
2022-12-31T04:17:47.738Z,1.90
2022-12-31T04:20:18.142Z,1.23
2022-12-31T04:22:45.128Z,1.05
2022-12-31T04:25:12.981Z,2.88
2022-12-31T04:27:43.513Z,1.13
2022-12-31T04:30:14.657Z,0.73
2022-12-31T04:32:42.037Z,0.65
2022-12-31T04:35:10.291Z,1.48
2022-12-31T04:37:37.445Z,0.93
2022-12-31T04:40:06.584Z,1.95
2022-12-31T04:42:36.469Z,1.85
2022-12-31T04:45:04.533Z,3.17
2022-12-31T04:47:31.460Z,1.15
2022-12-31T04:49:58.488Z,1.00
2022-12-31T04:52:25.483Z,0.82
2022-12-31T04:54:52.457Z,0.98
2022-12-31T04:57:19.371Z,2.20
2022-12-31T04:59:46.322Z,1.02
2022-12-31T05:02:13.388Z,0.80
2022-12-31T05:04:43.687Z,0.68
2022-12-31T05:07:10.759Z,1.05
2022-12-31T05:09:39.028Z,0.60
2022-12-31T05:12:06.297Z,1.98
2022-12-31T05:14:33.198Z,0.93
2022-12-31T05:17:01.188Z,1.42
2022-12-31T05:19:28.279Z,2.72
2022-12-31T05:22:13.846Z,1.35
2022-12-31T05:24:40.825Z,1.63
2022-12-31T05:27:07.794Z,0.65
2022-12-31T05:29:34.728Z,2.92
2022-12-31T05:32:01.674Z,0.98
2022-12-31T05:34:28.719Z,0.70
2022-12-31T05:36:55.624Z,1.08
2022-12-31T05:39:22.537Z,0.95
2022-12-31T05:41:49.438Z,0.85
2022-12-31T05:44:16.417Z,0.60
2022-12-31T05:46:43.923Z,1.70
2022-12-31T05:49:11.079Z,1.75
2022-12-31T05:51:38.081Z,2.13
2022-12-31T05:54:05.104Z,1.85
2022-12-31T05:56:32.108Z,0.80
2022-12-31T05:58:59.092Z,2.65
2022-12-31T06:01:26.055Z,2.22
2022-12-31T06:03:53.090Z,1.05
2022-12-31T06:06:20.055Z,4.90
2022-12-31T06:08:51.279Z,1.98
2022-12-31T06:11:18.326Z,1.38
2022-12-31T06:13:45.406Z,2.90
2022-12-31T06:16:13.750Z,1.77
2022-12-31T06:18:41.288Z,2.08
2022-12-31T06:21:08.278Z,1.67
2022-12-31T06:23:35.239Z,2.83
2022-12-31T06:26:05.473Z,2.58
2022-12-31T06:28:32.656Z,2.92
2022-12-31T06:31:01.239Z,1.52
2022-12-31T06:33:28.567Z,3.00
2022-12-31T06:36:00.156Z,0.73
2022-12-31T06:38:28.815Z,1.48
2022-12-31T06:40:56.183Z,2.05
2022-12-31T06:43:23.395Z,1.35
2022-12-31T06:45:50.317Z,1.40
2022-12-31T06:48:17.725Z,0.80
2022-12-31T06:50:44.613Z,3.10
2022-12-31T06:53:12.111Z,1.90
2022-12-31T06:55:39.408Z,3.17
2022-12-31T06:58:06.627Z,2.05
2022-12-31T07:00:33.854Z,2.00
2022-12-31T07:03:31.004Z,1.10
2022-12-31T07:06:38.611Z,1.88
2022-12-31T07:09:17.066Z,1.73
2022-12-31T07:12:17.678Z,3.40
2022-12-31T07:15:02.168Z,3.22
2022-12-31T07:17:38.504Z,0.80
2022-12-31T07:20:11.213Z,2.65
2022-12-31T07:22:38.667Z,1.48
2022-12-31T07:25:07.075Z,3.25
2022-12-31T07:27:42.675Z,1.77
2022-12-31T07:30:15.619Z,2.05
2022-12-31T07:32:42.532Z,1.92
2022-12-31T07:35:10.920Z,2.97
2022-12-31T07:37:43.449Z,3.03
2022-12-31T07:40:38.000Z,1.65
2022-12-31T07:43:22.667Z,1.58
2022-12-31T07:46:01.615Z,2.10
2022-12-31T07:48:29.643Z,1.33
2022-12-31T07:50:57.819Z,2.35
2022-12-31T07:53:25.887Z,3.05
2022-12-31T07:55:57.456Z,2.00
2022-12-31T07:58:47.951Z,3.17
2022-12-31T08:01:29.948Z,3.50
2022-12-31T08:04:45.301Z,1.30
2022-12-31T08:07:50.155Z,1.25
2022-12-31T08:10:31.849Z,3.08
2022-12-31T08:13:03.860Z,1.70
2022-12-31T08:15:31.992Z,2.22
2022-12-31T08:18:01.616Z,1.42
2022-12-31T08:20:30.765Z,2.53
2022-12-31T08:23:14.512Z,1.55
2022-12-31T08:26:01.681Z,2.25
2022-12-31T08:28:58.986Z,2.17
2022-12-31T08:31:36.867Z,1.13
2022-12-31T08:34:17.645Z,1.60
2022-12-31T08:37:07.125Z,2.55
2022-12-31T08:40:13.169Z,2.53
2022-12-31T08:42:43.598Z,2.97
2022-12-31T08:45:25.721Z,5.18
2022-12-31T08:48:04.642Z,1.42
2022-12-31T08:50:31.914Z,2.25
2022-12-31T08:52:59.702Z,2.03
2022-12-31T08:55:27.024Z,4.47
2022-12-31T08:58:07.104Z,4.93
2022-12-31T09:00:36.171Z,2.47
2022-12-31T09:03:11.431Z,2.90
2022-12-31T09:06:00.440Z,1.85
2022-12-31T09:08:36.249Z,1.00
2022-12-31T09:11:23.129Z,2.95
2022-12-31T09:14:08.170Z,0.98
2022-12-31T09:16:50.425Z,2.35
2022-12-31T09:19:17.684Z,2.03
2022-12-31T09:21:45.494Z,3.28
2022-12-31T09:24:16.385Z,3.40
2022-12-31T09:26:43.328Z,2.45
2022-12-31T09:29:13.300Z,2.83
2022-12-31T09:31:54.181Z,5.22
2022-12-31T09:34:47.281Z,3.47
2022-12-31T09:37:20.480Z,3.17
2022-12-31T09:39:48.483Z,3.28
2022-12-31T09:42:33.131Z,3.72
2022-12-31T09:45:06.155Z,3.50
2022-12-31T09:48:10.082Z,7.10
2022-12-31T09:50:52.975Z,3.25
2022-12-31T09:53:45.236Z,2.28
2022-12-31T09:56:29.151Z,2.83
2022-12-31T09:59:30.141Z,3.05
2022-12-31T10:02:15.751Z,1.50
2022-12-31T10:04:45.821Z,2.67
2022-12-31T10:07:34.722Z,2.25
2022-12-31T10:10:34.519Z,1.70
2022-12-31T10:13:20.222Z,1.40
2022-12-31T10:16:14.040Z,2.90
2022-12-31T10:19:13.299Z,2.83
2022-12-31T10:21:58.682Z,2.35
2022-12-31T10:24:59.190Z,2.70
2022-12-31T10:27:46.328Z,3.03
2022-12-31T10:30:17.682Z,4.30
2022-12-31T10:33:07.927Z,1.83
2022-12-31T10:36:12.221Z,2.88
2022-12-31T10:39:14.376Z,4.00
2022-12-31T10:42:00.656Z,5.00
2022-12-31T10:44:51.560Z,1.80
2022-12-31T10:47:57.187Z,4.85
2022-12-31T10:50:47.973Z,2.13
2022-12-31T10:53:25.256Z,4.57
2022-12-31T10:56:33.287Z,4.35
2022-12-31T10:59:18.810Z,3.30
2022-12-31T11:02:18.172Z,2.92
2022-12-31T11:05:03.298Z,5.45
2022-12-31T11:07:55.011Z,2.05
2022-12-31T11:10:33.699Z,2.58
2022-12-31T11:13:15.090Z,2.85
2022-12-31T11:16:06.082Z,4.45
2022-12-31T11:18:48.296Z,2.72
2022-12-31T11:21:28.552Z,3.58
2022-12-31T11:24:05.414Z,1.35
2022-12-31T11:26:32.389Z,5.13
2022-12-31T11:29:28.583Z,14.50
2022-12-31T11:32:27.930Z,22.95
2022-12-31T11:35:17.876Z,22.50
2022-12-31T11:37:48.294Z,24.52
2022-12-31T11:40:54.080Z,23.83
2022-12-31T11:43:21.177Z,32.08
2022-12-31T11:45:59.786Z,37.10
2022-12-31T11:49:03.574Z,34.05
2022-12-31T11:51:59.181Z,32.95
2022-12-31T11:54:26.076Z,25.10
2022-12-31T11:57:12.364Z,14.98
2022-12-31T11:59:39.336Z,23.15
2022-12-31T12:02:30.133Z,15.50
2022-12-31T12:05:01.711Z,14.93
2022-12-31T12:07:33.536Z,17.33
2022-12-31T12:10:15.002Z,11.15
2022-12-31T12:12:43.125Z,7.28
2022-12-31T12:15:17.449Z,7.60
2022-12-31T12:17:48.984Z,6.80
2022-12-31T12:20:29.361Z,18.38
2022-12-31T12:22:58.698Z,9.70
2022-12-31T12:25:28.187Z,7.78
2022-12-31T12:27:55.351Z,8.15
2022-12-31T12:30:28.246Z,6.68
2022-12-31T12:32:56.690Z,4.10
2022-12-31T12:35:30.270Z,6.03
2022-12-31T12:38:00.961Z,4.35
2022-12-31T12:40:33.751Z,7.63
2022-12-31T12:43:03.409Z,6.50
2022-12-31T12:45:51.696Z,3.90
2022-12-31T12:48:40.923Z,5.30
2022-12-31T12:51:43.127Z,5.05
2022-12-31T12:54:39.918Z,8.13
2022-12-31T12:57:32.499Z,8.35
2022-12-31T13:00:08.753Z,5.03
2022-12-31T13:03:10.278Z,3.00
2022-12-31T13:06:02.906Z,2.97
2022-12-31T13:09:11.925Z,3.42
2022-12-31T13:11:56.120Z,7.47
2022-12-31T13:14:53.615Z,6.72
2022-12-31T13:17:29.520Z,8.13
2022-12-31T13:20:15.128Z,3.97
2022-12-31T13:22:45.297Z,8.45
2022-12-31T13:25:52.671Z,3.88
2022-12-31T13:28:20.419Z,4.18
2022-12-31T13:30:51.626Z,3.42
2022-12-31T13:33:27.839Z,3.72
2022-12-31T13:36:00.162Z,6.28
2022-12-31T13:38:33.614Z,5.43
2022-12-31T13:41:11.829Z,4.00
2022-12-31T13:44:04.824Z,4.78
2022-12-31T13:46:34.636Z,6.90
2022-12-31T13:49:05.446Z,3.70
2022-12-31T13:51:55.321Z,3.60
2022-12-31T13:54:36.241Z,4.75
2022-12-31T13:57:11.701Z,2.45
2022-12-31T13:59:42.178Z,2.72
2022-12-31T14:02:36.662Z,4.30
2022-12-31T14:05:12.942Z,19.13
2022-12-31T14:07:56.467Z,13.13
2022-12-31T14:10:54.764Z,7.65
2022-12-31T14:13:34.197Z,4.00
2022-12-31T14:16:35.637Z,5.90
2022-12-31T14:19:30.706Z,4.55
2022-12-31T14:22:27.605Z,4.30
2022-12-31T14:24:55.983Z,4.85
2022-12-31T14:27:34.764Z,11.73
2022-12-31T14:30:13.418Z,7.60
2022-12-31T14:32:58.330Z,4.05
2022-12-31T14:35:52.329Z,4.20
2022-12-31T14:38:38.460Z,7.63
2022-12-31T14:41:42.619Z,11.50
2022-12-31T14:44:24.664Z,5.47
2022-12-31T14:47:10.311Z,9.00
2022-12-31T14:50:01.210Z,14.27
2022-12-31T14:52:48.136Z,6.50
2022-12-31T14:55:15.143Z,15.18
2022-12-31T14:58:25.989Z,11.68
2022-12-31T15:00:35.997Z,17.95
2022-12-31T15:03:14.546Z,9.98
2022-12-31T15:06:29.144Z,10.70
2022-12-31T15:09:08.203Z,8.32
2022-12-31T15:12:11.960Z,4.25
2022-12-31T15:15:03.841Z,16.40
2022-12-31T15:17:55.136Z,8.82
2022-12-31T15:20:30.747Z,7.40
2022-12-31T15:22:58.020Z,4.45
2022-12-31T15:25:38.412Z,4.05
2022-12-31T15:28:22.433Z,5.35
2022-12-31T15:30:50.698Z,3.13
2022-12-31T15:33:33.731Z,6.35
2022-12-31T15:36:19.507Z,3.25
2022-12-31T15:38:47.924Z,3.53
2022-12-31T15:41:24.387Z,6.57
2022-12-31T15:44:20.974Z,8.27
2022-12-31T15:46:54.164Z,5.30
2022-12-31T15:49:23.709Z,4.47
2022-12-31T15:52:06.131Z,4.40
2022-12-31T15:54:51.625Z,3.88
2022-12-31T15:57:23.472Z,3.88
2022-12-31T15:59:57.741Z,5.13
2022-12-31T16:02:27.347Z,4.43
2022-12-31T16:04:55.638Z,4.82
2022-12-31T16:07:24.287Z,3.03
2022-12-31T16:09:56.519Z,2.60
2022-12-31T16:12:32.535Z,3.78
2022-12-31T16:15:01.207Z,4.30
2022-12-31T16:17:34.853Z,1.88
2022-12-31T16:20:20.438Z,6.50
2022-12-31T16:22:53.069Z,5.40
2022-12-31T16:25:36.568Z,4.97
2022-12-31T16:28:04.206Z,3.88
2022-12-31T16:30:33.465Z,2.63
2022-12-31T16:33:04.493Z,3.85
2022-12-31T16:35:33.556Z,3.83
2022-12-31T16:38:18.580Z,8.43
2022-12-31T16:41:03.885Z,3.85
2022-12-31T16:43:37.653Z,3.47
2022-12-31T16:46:27.585Z,4.75
2022-12-31T16:49:00.908Z,5.68
2022-12-31T16:51:31.308Z,5.63
2022-12-31T16:53:59.336Z,4.60
2022-12-31T16:56:38.645Z,2.80
2022-12-31T16:59:30.548Z,4.63
2022-12-31T17:02:04.908Z,5.90
2022-12-31T17:04:32.031Z,5.45
2022-12-31T17:07:26.802Z,7.65
2022-12-31T17:10:24.352Z,5.35
2022-12-31T17:13:27.038Z,3.72
2022-12-31T17:15:47.521Z,5.38
2022-12-31T17:18:26.662Z,4.53
2022-12-31T17:20:58.430Z,10.90
2022-12-31T17:23:33.841Z,5.75
2022-12-31T17:26:23.410Z,5.95
2022-12-31T17:28:52.326Z,3.80
2022-12-31T17:31:37.615Z,4.78
2022-12-31T17:34:21.225Z,6.45
2022-12-31T17:37:11.678Z,6.95
2022-12-31T17:39:44.722Z,6.15
2022-12-31T17:42:12.778Z,4.60
2022-12-31T17:44:42.994Z,5.72
2022-12-31T17:47:14.108Z,7.43
2022-12-31T17:49:44.954Z,3.63
2022-12-31T17:52:16.052Z,5.68
2022-12-31T17:54:43.167Z,7.70
2022-12-31T17:57:23.164Z,8.18
2022-12-31T17:59:50.232Z,5.50
2022-12-31T18:02:17.519Z,7.97
2022-12-31T18:04:44.675Z,6.25
2022-12-31T18:07:11.721Z,7.20
2022-12-31T18:09:38.638Z,8.55
2022-12-31T18:12:06.458Z,5.22
2022-12-31T18:14:33.679Z,7.22
2022-12-31T18:17:00.928Z,8.43
2022-12-31T18:20:02.785Z,6.40
2022-12-31T18:22:16.561Z,7.93
2022-12-31T18:24:44.587Z,7.72
2022-12-31T18:27:19.215Z,6.07
2022-12-31T18:29:46.838Z,4.18
2022-12-31T18:32:25.913Z,5.18
2022-12-31T18:34:53.393Z,5.75
2022-12-31T18:37:22.324Z,5.97
2022-12-31T18:39:49.646Z,3.25
2022-12-31T18:42:18.965Z,6.32
2022-12-31T18:44:46.890Z,5.38
2022-12-31T18:47:18.647Z,5.50
2022-12-31T18:49:48.228Z,6.72
2022-12-31T18:52:18.901Z,6.50
2022-12-31T18:54:46.104Z,5.82
2022-12-31T18:57:22.120Z,5.35
2022-12-31T18:59:49.165Z,7.35
2022-12-31T19:02:20.563Z,5.93
2022-12-31T19:04:48.545Z,4.72
2022-12-31T19:07:15.438Z,6.20
2022-12-31T19:09:46.705Z,7.78
2022-12-31T19:12:15.108Z,4.40
2022-12-31T19:14:42.105Z,6.32
2022-12-31T19:19:35.047Z,4.43
2022-12-31T19:22:02.765Z,4.43
2022-12-31T19:24:29.830Z,7.72
2022-12-31T19:26:56.923Z,6.50
2022-12-31T19:29:26.693Z,7.07
2022-12-31T19:31:54.156Z,5.95
2022-12-31T19:34:21.188Z,3.42
2022-12-31T19:36:48.136Z,7.07
2022-12-31T19:39:17.786Z,9.02
2022-12-31T19:41:45.362Z,5.97
2022-12-31T19:44:19.663Z,6.10
2022-12-31T19:46:49.169Z,9.10
2022-12-31T19:49:16.695Z,4.72
2022-12-31T19:51:43.686Z,5.55
2022-12-31T19:54:12.907Z,4.03
2022-12-31T19:56:39.825Z,5.95
2022-12-31T19:59:08.290Z,5.15
2022-12-31T20:01:35.420Z,5.55
2022-12-31T20:04:02.697Z,5.40
2022-12-31T20:06:29.826Z,4.22
2022-12-31T20:08:56.835Z,7.80
2022-12-31T20:11:24.438Z,4.82
2022-12-31T20:13:53.621Z,4.13
2022-12-31T20:16:23.275Z,7.15
2022-12-31T20:18:50.894Z,3.40
2022-12-31T20:21:23.231Z,6.57
2022-12-31T20:23:52.786Z,7.75
2022-12-31T20:26:21.419Z,3.75
2022-12-31T20:28:48.577Z,4.63
2022-12-31T20:31:19.552Z,4.10
2022-12-31T20:33:46.693Z,6.47
2022-12-31T20:36:15.882Z,3.03
2022-12-31T20:38:43.553Z,6.63
2022-12-31T20:41:16.774Z,4.72
2022-12-31T20:43:44.103Z,4.43
2022-12-31T20:46:15.959Z,2.22
2022-12-31T20:48:49.861Z,6.97
2022-12-31T20:51:18.401Z,37.08
2022-12-31T20:53:50.155Z,28.58
2022-12-31T20:56:17.960Z,35.83
2022-12-31T20:58:45.173Z,29.23
2022-12-31T21:01:12.406Z,19.73
2022-12-31T21:06:29.656Z,20.05
2022-12-31T21:08:58.785Z,17.25
2022-12-31T21:11:44.894Z,17.02
2022-12-31T21:14:11.846Z,17.23
2022-12-31T21:16:38.953Z,23.10
2022-12-31T21:19:06.152Z,15.77
2022-12-31T21:21:33.724Z,11.68
2022-12-31T21:24:00.663Z,13.18
2022-12-31T21:26:29.294Z,17.05
2022-12-31T21:28:56.502Z,13.68
2022-12-31T21:31:23.684Z,8.80
2022-12-31T21:33:50.734Z,12.48
2022-12-31T21:36:17.721Z,14.88
2022-12-31T21:38:45.238Z,10.98
2022-12-31T21:41:33.559Z,8.57
2022-12-31T21:44:02.069Z,9.93
2022-12-31T21:46:29.461Z,8.48
2022-12-31T21:49:00.760Z,8.85
2022-12-31T21:51:28.693Z,10.95
2022-12-31T21:53:56.072Z,8.88
2022-12-31T21:56:23.424Z,10.25
2022-12-31T21:59:15.581Z,7.30
2022-12-31T22:02:02.269Z,9.52
2022-12-31T22:05:01.393Z,10.98
2022-12-31T22:07:16.362Z,9.60
2022-12-31T22:09:43.320Z,9.05
2022-12-31T22:12:10.268Z,7.20
2022-12-31T22:14:37.217Z,8.93
2022-12-31T22:17:04.160Z,6.07
2022-12-31T22:19:31.097Z,12.55
2022-12-31T22:21:58.057Z,8.73
2022-12-31T22:24:25.067Z,8.52
2022-12-31T22:26:54.209Z,5.80
2022-12-31T22:29:21.574Z,10.80
2022-12-31T22:31:48.523Z,7.55
2022-12-31T22:34:15.546Z,6.88
2022-12-31T22:36:42.444Z,6.97
2022-12-31T22:39:43.334Z,8.23
2022-12-31T22:42:03.651Z,5.90
2022-12-31T22:44:30.726Z,9.15
2022-12-31T22:46:57.726Z,7.65
2022-12-31T22:49:25.789Z,4.50
2022-12-31T22:51:56.642Z,6.22
2022-12-31T22:54:25.885Z,7.50
2022-12-31T22:56:52.848Z,11.32
2022-12-31T22:59:19.985Z,20.83
2022-12-31T23:01:47.197Z,114.10
2022-12-31T23:04:14.274Z,120.18
2022-12-31T23:06:43.859Z,171.80
2022-12-31T23:09:31.050Z,150.93
2022-12-31T23:11:58.340Z,144.75
2022-12-31T23:14:44.362Z,132.85
2022-12-31T23:17:36.227Z,116.10
2022-12-31T23:20:23.356Z,107.97
2022-12-31T23:23:08.833Z,107.13
2022-12-31T23:25:50.632Z,103.38
2022-12-31T23:28:23.927Z,103.47
2022-12-31T23:30:51.557Z,88.85
2022-12-31T23:33:24.839Z,82.07
2022-12-31T23:36:01.361Z,78.97
2022-12-31T23:38:28.317Z,78.50
2022-12-31T23:40:55.268Z,71.15
2022-12-31T23:43:22.912Z,53.90
2022-12-31T23:45:51.088Z,52.92
2022-12-31T23:48:18.045Z,69.25
2022-12-31T23:50:50.872Z,59.33
2022-12-31T23:53:19.848Z,56.58
2022-12-31T23:55:46.790Z,51.90
2022-12-31T23:58:13.722Z,57.22
